This is the latest recevied weather packets stored in our database for station/object Winterlng. If no packets are shown the sender has not sent any weather packets the latest 10 day(s).
| Time | Temp. | Humidity | Pressure | Rain* | Wind** | Luminosity | Snow |
|---|---|---|---|---|---|---|---|
| 1777213930 | 17.78° C | 32% | 0 hPa | 0 mm | - | - | - |
| 1777212130 | 17.78° C | 32% | 0 hPa | 0 mm | - | - | - |
| 1777210330 | 17.78° C | 31% | 0 hPa | 0 mm | - | - | - |
| 1777208531 | 17.78° C | 28% | 0 hPa | 0 mm | - | - | - |
| 1777206730 | 17.22° C | 28% | 0 hPa | 0 mm | - | - | - |
| 1777204931 | 16.67° C | 29% | 0 hPa | 0 mm | - | - | - |
| 1777203131 | 16.11° C | 28% | 0 hPa | 0 mm | - | - | - |
| 1777201330 | 15.56° C | 29% | 0 hPa | 0 mm | - | - | - |
| 1777199532 | 16.11° C | 29% | 0 hPa | 0 mm | - | - | - |
| 1777197730 | 16.11° C | 30% | 0 hPa | 0 mm | - | - | - |
| 1777195933 | 15.56° C | 33% | 0 hPa | 0 mm | - | - | - |
| 1777194132 | 15° C | 34% | 0 hPa | 0 mm | - | - | - |
| 1777192331 | 14.44° C | 35% | 0 hPa | 0 mm | - | - | - |
| 1777190531 | 13.89° C | 39% | 0 hPa | 0 mm | - | - | - |
| 1777188731 | 12.78° C | 39% | 0 hPa | 0 mm | - | - | - |
| 1777186931 | 11.67° C | 42% | 0 hPa | 0 mm | - | - | - |
| 1777185136 | 11.11° C | 42% | 0 hPa | 0 mm | - | - | - |
| 1777183336 | 10° C | 47% | 0 hPa | 0 mm | - | - | - |
| 1777181533 | 8.33° C | 49% | 0 hPa | 0 mm | - | - | - |
| 1777179731 | 6.11° C | 56% | 0 hPa | 0 mm | - | - | - |
| 1777177931 | 2.78° C | 66% | 0 hPa | 0 mm | - | - | - |
| 1777176142 | 3.33° C | 65% | 0 hPa | 0 mm | - | - | - |
| 1777174331 | 3.33° C | 64% | 0 hPa | 0 mm | - | - | - |
| 1777172531 | 3.89° C | 62% | 0 hPa | 0 mm | - | - | - |
| 1777170732 | 4.44° C | 61% | 0 hPa | 0 mm | - | - | - |
* Rain since midnight (hover to see other rain measurements)
** Current wind speed in m/s (hover to see current wind gust speed)